sensor_id;sensor_type;location;lat;lon;timestamp;pressure;altitude;pressure_sealevel;temperature
67353;BMP180;54238;52.278;21.056;2023-02-15T00:02:07;102154.20;;;3.90
67353;BMP180;54238;52.278;21.056;2023-02-15T00:04:35;102148.40;;;3.90
67353;BMP180;54238;52.278;21.056;2023-02-15T00:07:17;102154.00;;;3.90
67353;BMP180;54238;52.278;21.056;2023-02-15T00:09:48;102151.80;;;3.90
67353;BMP180;54238;52.278;21.056;2023-02-15T00:12:16;102152.80;;;3.90
67353;BMP180;54238;52.278;21.056;2023-02-15T00:17:50;102153.20;;;3.90
67353;BMP180;54238;52.278;21.056;2023-02-15T00:20:20;102152.60;;;3.90
67353;BMP180;54238;52.278;21.056;2023-02-15T00:22:52;102146.20;;;3.90
67353;BMP180;54238;52.278;21.056;2023-02-15T00:25:31;102146.60;;;3.90
67353;BMP180;54238;52.278;21.056;2023-02-15T00:27:59;102144.40;;;4.00
67353;BMP180;54238;52.278;21.056;2023-02-15T00:30:29;102145.20;;;4.00
67353;BMP180;54238;52.278;21.056;2023-02-15T00:33:06;102145.00;;;4.00
67353;BMP180;54238;52.278;21.056;2023-02-15T00:35:35;102144.00;;;4.02
67353;BMP180;54238;52.278;21.056;2023-02-15T00:38:09;102149.80;;;4.10
67353;BMP180;54238;52.278;21.056;2023-02-15T00:40:37;102146.40;;;4.08
67353;BMP180;54238;52.278;21.056;2023-02-15T00:43:04;102141.40;;;4.04
67353;BMP180;54238;52.278;21.056;2023-02-15T00:45:33;102139.00;;;4.04
67353;BMP180;54238;52.278;21.056;2023-02-15T00:48:00;102138.80;;;4.10
67353;BMP180;54238;52.278;21.056;2023-02-15T00:50:29;102130.80;;;4.10
67353;BMP180;54238;52.278;21.056;2023-02-15T00:53:00;102131.00;;;4.06
67353;BMP180;54238;52.278;21.056;2023-02-15T00:55:28;102122.60;;;4.00
67353;BMP180;54238;52.278;21.056;2023-02-15T00:57:59;102124.00;;;4.00
67353;BMP180;54238;52.278;21.056;2023-02-15T01:01:05;102117.60;;;4.00
67353;BMP180;54238;52.278;21.056;2023-02-15T01:03:37;102115.80;;;4.00
67353;BMP180;54238;52.278;21.056;2023-02-15T01:06:11;102119.60;;;4.00
67353;BMP180;54238;52.278;21.056;2023-02-15T01:08:38;102119.40;;;4.10
67353;BMP180;54238;52.278;21.056;2023-02-15T01:11:12;102117.20;;;4.10
67353;BMP180;54238;52.278;21.056;2023-02-15T01:13:44;102113.20;;;4.10
67353;BMP180;54238;52.278;21.056;2023-02-15T01:16:16;102112.40;;;4.10
67353;BMP180;54238;52.278;21.056;2023-02-15T01:18:49;102106.00;;;4.10
67353;BMP180;54238;52.278;21.056;2023-02-15T01:21:21;102108.40;;;4.10
67353;BMP180;54238;52.278;21.056;2023-02-15T01:23:54;102108.40;;;4.10
67353;BMP180;54238;52.278;21.056;2023-02-15T01:26:28;102110.00;;;4.10
67353;BMP180;54238;52.278;21.056;2023-02-15T01:28:57;102113.60;;;4.10
67353;BMP180;54238;52.278;21.056;2023-02-15T01:31:32;102108.20;;;4.10
67353;BMP180;54238;52.278;21.056;2023-02-15T01:34:02;102104.20;;;4.10
67353;BMP180;54238;52.278;21.056;2023-02-15T01:36:41;102102.00;;;4.10
67353;BMP180;54238;52.278;21.056;2023-02-15T01:39:11;102099.20;;;4.10
67353;BMP180;54238;52.278;21.056;2023-02-15T01:41:42;102099.40;;;4.10
67353;BMP180;54238;52.278;21.056;2023-02-15T01:44:58;102099.60;;;4.10
67353;BMP180;54238;52.278;21.056;2023-02-15T01:47:40;102098.80;;;4.10
67353;BMP180;54238;52.278;21.056;2023-02-15T01:53:15;102098.00;;;4.10
67353;BMP180;54238;52.278;21.056;2023-02-15T01:56:04;102100.60;;;4.10
67353;BMP180;54238;52.278;21.056;2023-02-15T01:58:36;102098.40;;;4.16
67353;BMP180;54238;52.278;21.056;2023-02-15T02:01:08;102099.40;;;4.20
67353;BMP180;54238;52.278;21.056;2023-02-15T02:06:29;102093.20;;;4.20
67353;BMP180;54238;52.278;21.056;2023-02-15T02:08:57;102085.00;;;4.26
67353;BMP180;54238;52.278;21.056;2023-02-15T02:11:25;102087.20;;;4.30
67353;BMP180;54238;52.278;21.056;2023-02-15T02:13:55;102081.00;;;4.30
67353;BMP180;54238;52.278;21.056;2023-02-15T02:41:07;102065.60;;;4.40
67353;BMP180;54238;52.278;21.056;2023-02-15T02:43:52;102065.80;;;4.40
67353;BMP180;54238;52.278;21.056;2023-02-15T02:46:35;102059.40;;;4.40
67353;BMP180;54238;52.278;21.056;2023-02-15T02:49:06;102063.20;;;4.40
67353;BMP180;54238;52.278;21.056;2023-02-15T02:51:36;102060.60;;;4.40
67353;BMP180;54238;52.278;21.056;2023-02-15T02:54:06;102059.80;;;4.40
67353;BMP180;54238;52.278;21.056;2023-02-15T02:56:44;102056.80;;;4.40
67353;BMP180;54238;52.278;21.056;2023-02-15T02:59:28;102053.60;;;4.40
67353;BMP180;54238;52.278;21.056;2023-02-15T03:02:24;102054.60;;;4.40
67353;BMP180;54238;52.278;21.056;2023-02-15T03:05:03;102053.00;;;4.40
67353;BMP180;54238;52.278;21.056;2023-02-15T03:07:39;102057.80;;;4.40
67353;BMP180;54238;52.278;21.056;2023-02-15T03:10:09;102059.20;;;4.40
67353;BMP180;54238;52.278;21.056;2023-02-15T03:12:41;102060.60;;;4.50
67353;BMP180;54238;52.278;21.056;2023-02-15T03:15:22;102059.20;;;4.50
67353;BMP180;54238;52.278;21.056;2023-02-15T03:18:00;102055.20;;;4.60
67353;BMP180;54238;52.278;21.056;2023-02-15T03:20:35;102055.40;;;4.60
67353;BMP180;54238;52.278;21.056;2023-02-15T03:23:11;102053.60;;;4.62
67353;BMP180;54238;52.278;21.056;2023-02-15T03:25:44;102049.80;;;4.70
67353;BMP180;54238;52.278;21.056;2023-02-15T03:28:25;102050.20;;;4.70
67353;BMP180;54238;52.278;21.056;2023-02-15T03:31:02;102054.40;;;4.70
67353;BMP180;54238;52.278;21.056;2023-02-15T03:33:33;102049.20;;;4.70
67353;BMP180;54238;52.278;21.056;2023-02-15T03:42:01;102057.80;;;4.70
67353;BMP180;54238;52.278;21.056;2023-02-15T03:44:53;102064.60;;;4.80
67353;BMP180;54238;52.278;21.056;2023-02-15T03:47:31;102061.20;;;4.80
67353;BMP180;54238;52.278;21.056;2023-02-15T03:50:06;102057.40;;;4.80
67353;BMP180;54238;52.278;21.056;2023-02-15T03:53:07;102057.00;;;4.80
67353;BMP180;54238;52.278;21.056;2023-02-15T03:55:36;102050.00;;;4.80
67353;BMP180;54238;52.278;21.056;2023-02-15T03:58:05;102049.00;;;4.80
67353;BMP180;54238;52.278;21.056;2023-02-15T04:01:10;102046.80;;;4.80
67353;BMP180;54238;52.278;21.056;2023-02-15T04:04:11;102046.00;;;4.76
67353;BMP180;54238;52.278;21.056;2023-02-15T04:06:41;102038.60;;;4.80
67353;BMP180;54238;52.278;21.056;2023-02-15T04:09:08;102036.00;;;4.80
67353;BMP180;54238;52.278;21.056;2023-02-15T04:11:53;102036.80;;;4.80
67353;BMP180;54238;52.278;21.056;2023-02-15T04:14:20;102038.20;;;4.80
67353;BMP180;54238;52.278;21.056;2023-02-15T04:17:10;102041.60;;;4.70
67353;BMP180;54238;52.278;21.056;2023-02-15T04:19:39;102036.20;;;4.70
67353;BMP180;54238;52.278;21.056;2023-02-15T04:22:25;102039.20;;;4.70
67353;BMP180;54238;52.278;21.056;2023-02-15T04:25:15;102033.40;;;4.70
67353;BMP180;54238;52.278;21.056;2023-02-15T04:27:49;102037.40;;;4.70
67353;BMP180;54238;52.278;21.056;2023-02-15T04:30:21;102036.20;;;4.70
67353;BMP180;54238;52.278;21.056;2023-02-15T04:32:49;102037.60;;;4.70
67353;BMP180;54238;52.278;21.056;2023-02-15T04:35:19;102038.40;;;4.70
67353;BMP180;54238;52.278;21.056;2023-02-15T04:37:47;102038.40;;;4.70
67353;BMP180;54238;52.278;21.056;2023-02-15T04:40:17;102039.00;;;4.70
67353;BMP180;54238;52.278;21.056;2023-02-15T04:42:52;102030.00;;;4.70
67353;BMP180;54238;52.278;21.056;2023-02-15T04:45:21;102029.40;;;4.70
67353;BMP180;54238;52.278;21.056;2023-02-15T04:47:49;102034.60;;;4.70
67353;BMP180;54238;52.278;21.056;2023-02-15T04:50:18;102034.00;;;4.70
67353;BMP180;54238;52.278;21.056;2023-02-15T04:52:48;102034.40;;;4.66
67353;BMP180;54238;52.278;21.056;2023-02-15T04:55:18;102035.20;;;4.60
67353;BMP180;54238;52.278;21.056;2023-02-15T04:57:48;102030.60;;;4.60
67353;BMP180;54238;52.278;21.056;2023-02-15T05:00:18;102034.40;;;4.60
67353;BMP180;54238;52.278;21.056;2023-02-15T05:02:48;102038.20;;;4.60
67353;BMP180;54238;52.278;21.056;2023-02-15T05:05:18;102043.60;;;4.50
67353;BMP180;54238;52.278;21.056;2023-02-15T05:10:43;102043.20;;;4.50
67353;BMP180;54238;52.278;21.056;2023-02-15T05:13:13;102036.80;;;4.40
67353;BMP180;54238;52.278;21.056;2023-02-15T05:15:52;102044.00;;;4.40
67353;BMP180;54238;52.278;21.056;2023-02-15T05:18:23;102050.40;;;4.30
67353;BMP180;54238;52.278;21.056;2023-02-15T05:20:56;102053.20;;;4.30
67353;BMP180;54238;52.278;21.056;2023-02-15T05:23:27;102051.80;;;4.30
67353;BMP180;54238;52.278;21.056;2023-02-15T05:25:54;102053.00;;;4.30
67353;BMP180;54238;52.278;21.056;2023-02-15T05:28:43;102049.80;;;4.30
67353;BMP180;54238;52.278;21.056;2023-02-15T05:31:14;102053.80;;;4.30
67353;BMP180;54238;52.278;21.056;2023-02-15T05:33:49;102056.40;;;4.30
67353;BMP180;54238;52.278;21.056;2023-02-15T05:36:19;102053.60;;;4.28
67353;BMP180;54238;52.278;21.056;2023-02-15T05:38:46;102057.80;;;4.20
67353;BMP180;54238;52.278;21.056;2023-02-15T05:41:18;102057.20;;;4.20
67353;BMP180;54238;52.278;21.056;2023-02-15T05:43:48;102059.00;;;4.20
67353;BMP180;54238;52.278;21.056;2023-02-15T05:46:19;102052.80;;;4.14
67353;BMP180;54238;52.278;21.056;2023-02-15T05:48:51;102050.60;;;4.12
67353;BMP180;54238;52.278;21.056;2023-02-15T05:51:18;102050.40;;;4.10
67353;BMP180;54238;52.278;21.056;2023-02-15T05:53:52;102047.40;;;4.10
67353;BMP180;54238;52.278;21.056;2023-02-15T05:56:19;102049.00;;;4.10
67353;BMP180;54238;52.278;21.056;2023-02-15T05:58:47;102053.00;;;4.10
67353;BMP180;54238;52.278;21.056;2023-02-15T06:01:21;102053.40;;;4.10
67353;BMP180;54238;52.278;21.056;2023-02-15T06:03:54;102054.20;;;4.12
67353;BMP180;54238;52.278;21.056;2023-02-15T06:06:24;102058.00;;;4.20
67353;BMP180;54238;52.278;21.056;2023-02-15T06:08:56;102060.60;;;4.20
67353;BMP180;54238;52.278;21.056;2023-02-15T06:11:26;102058.20;;;4.20
67353;BMP180;54238;52.278;21.056;2023-02-15T06:13:53;102058.40;;;4.20
67353;BMP180;54238;52.278;21.056;2023-02-15T06:16:22;102060.80;;;4.12
67353;BMP180;54238;52.278;21.056;2023-02-15T06:18:52;102059.60;;;4.10
67353;BMP180;54238;52.278;21.056;2023-02-15T06:21:21;102055.40;;;4.10
67353;BMP180;54238;52.278;21.056;2023-02-15T06:23:48;102064.40;;;4.10
67353;BMP180;54238;52.278;21.056;2023-02-15T06:26:20;102065.00;;;4.12
67353;BMP180;54238;52.278;21.056;2023-02-15T06:28:47;102068.40;;;4.10
67353;BMP180;54238;52.278;21.056;2023-02-15T06:31:19;102062.00;;;4.10
67353;BMP180;54238;52.278;21.056;2023-02-15T06:33:46;102064.20;;;4.10
67353;BMP180;54238;52.278;21.056;2023-02-15T06:36:15;102067.00;;;4.10
67353;BMP180;54238;52.278;21.056;2023-02-15T06:38:47;102065.00;;;4.10
67353;BMP180;54238;52.278;21.056;2023-02-15T06:41:17;102070.80;;;4.16
67353;BMP180;54238;52.278;21.056;2023-02-15T06:43:49;102070.80;;;4.20
67353;BMP180;54238;52.278;21.056;2023-02-15T06:46:19;102069.80;;;4.20
67353;BMP180;54238;52.278;21.056;2023-02-15T06:48:46;102062.60;;;4.30
67353;BMP180;54238;52.278;21.056;2023-02-15T06:51:16;102063.20;;;4.30
67353;BMP180;54238;52.278;21.056;2023-02-15T06:53:43;102061.80;;;4.30
67353;BMP180;54238;52.278;21.056;2023-02-15T06:56:14;102058.00;;;4.30
67353;BMP180;54238;52.278;21.056;2023-02-15T06:58:47;102061.20;;;4.30
67353;BMP180;54238;52.278;21.056;2023-02-15T07:01:18;102059.00;;;4.30
67353;BMP180;54238;52.278;21.056;2023-02-15T07:03:46;102061.00;;;4.30
67353;BMP180;54238;52.278;21.056;2023-02-15T07:06:15;102062.60;;;4.30
67353;BMP180;54238;52.278;21.056;2023-02-15T07:08:45;102061.00;;;4.30
67353;BMP180;54238;52.278;21.056;2023-02-15T07:11:16;102061.40;;;4.26
67353;BMP180;54238;52.278;21.056;2023-02-15T07:14:05;102059.60;;;4.22
67353;BMP180;54238;52.278;21.056;2023-02-15T07:16:32;102063.60;;;4.30
67353;BMP180;54238;52.278;21.056;2023-02-15T07:18:59;102057.80;;;4.20
67353;BMP180;54238;52.278;21.056;2023-02-15T07:21:28;102053.40;;;4.20
67353;BMP180;54238;52.278;21.056;2023-02-15T07:23:57;102053.40;;;4.20
67353;BMP180;54238;52.278;21.056;2023-02-15T07:26:31;102056.80;;;4.20
67353;BMP180;54238;52.278;21.056;2023-02-15T07:29:01;102057.60;;;4.18
67353;BMP180;54238;52.278;21.056;2023-02-15T07:31:31;102052.80;;;4.20
67353;BMP180;54238;52.278;21.056;2023-02-15T07:34:01;102049.60;;;4.20
67353;BMP180;54238;52.278;21.056;2023-02-15T07:36:31;102043.80;;;4.20
67353;BMP180;54238;52.278;21.056;2023-02-15T07:39:00;102042.40;;;4.22
67353;BMP180;54238;52.278;21.056;2023-02-15T07:41:30;102048.00;;;4.30
67353;BMP180;54238;52.278;21.056;2023-02-15T07:43:57;102047.20;;;4.30
67353;BMP180;54238;52.278;21.056;2023-02-15T07:46:26;102047.60;;;4.30
67353;BMP180;54238;52.278;21.056;2023-02-15T07:48:54;102047.60;;;4.30
67353;BMP180;54238;52.278;21.056;2023-02-15T07:51:23;102043.00;;;4.40
67353;BMP180;54238;52.278;21.056;2023-02-15T07:53:50;102042.80;;;4.34
67353;BMP180;54238;52.278;21.056;2023-02-15T07:56:20;102041.80;;;4.30
67353;BMP180;54238;52.278;21.056;2023-02-15T07:58:50;102040.60;;;4.28
67353;BMP180;54238;52.278;21.056;2023-02-15T08:01:36;102037.60;;;4.20
67353;BMP180;54238;52.278;21.056;2023-02-15T08:04:07;102039.80;;;4.10
67353;BMP180;54238;52.278;21.056;2023-02-15T08:06:41;102049.00;;;4.10
67353;BMP180;54238;52.278;21.056;2023-02-15T08:09:11;102038.40;;;4.10
67353;BMP180;54238;52.278;21.056;2023-02-15T08:11:44;102034.80;;;4.20
67353;BMP180;54238;52.278;21.056;2023-02-15T08:14:15;102031.20;;;4.20
67353;BMP180;54238;52.278;21.056;2023-02-15T08:16:51;102027.00;;;4.24
67353;BMP180;54238;52.278;21.056;2023-02-15T08:19:30;102029.20;;;4.30
67353;BMP180;54238;52.278;21.056;2023-02-15T08:22:03;102029.40;;;4.30
67353;BMP180;54238;52.278;21.056;2023-02-15T08:24:34;102030.60;;;4.20
67353;BMP180;54238;52.278;21.056;2023-02-15T08:27:09;102025.80;;;4.10
67353;BMP180;54238;52.278;21.056;2023-02-15T08:29:38;102026.00;;;4.10
67353;BMP180;54238;52.278;21.056;2023-02-15T08:32:11;102025.00;;;4.10
67353;BMP180;54238;52.278;21.056;2023-02-15T08:34:41;102026.20;;;4.10
67353;BMP180;54238;52.278;21.056;2023-02-15T08:37:13;102025.40;;;4.10
67353;BMP180;54238;52.278;21.056;2023-02-15T08:39:40;102024.40;;;4.10
67353;BMP180;54238;52.278;21.056;2023-02-15T08:42:11;102020.40;;;4.10
67353;BMP180;54238;52.278;21.056;2023-02-15T08:44:41;102022.40;;;4.14
67353;BMP180;54238;52.278;21.056;2023-02-15T08:47:09;102015.40;;;4.20
67353;BMP180;54238;52.278;21.056;2023-02-15T08:49:36;102013.60;;;4.20
67353;BMP180;54238;52.278;21.056;2023-02-15T08:52:06;102008.80;;;4.22
67353;BMP180;54238;52.278;21.056;2023-02-15T08:54:34;102007.60;;;4.20
67353;BMP180;54238;52.278;21.056;2023-02-15T08:57:03;102008.60;;;4.20
67353;BMP180;54238;52.278;21.056;2023-02-15T08:59:33;102003.20;;;4.20
67353;BMP180;54238;52.278;21.056;2023-02-15T09:02:00;102002.00;;;4.20
67353;BMP180;54238;52.278;21.056;2023-02-15T09:04:34;101999.40;;;4.20
67353;BMP180;54238;52.278;21.056;2023-02-15T09:07:04;101998.80;;;4.30
67353;BMP180;54238;52.278;21.056;2023-02-15T09:09:35;101995.60;;;4.30
67353;BMP180;54238;52.278;21.056;2023-02-15T09:12:02;101993.20;;;4.40
67353;BMP180;54238;52.278;21.056;2023-02-15T09:14:30;101991.20;;;4.40
67353;BMP180;54238;52.278;21.056;2023-02-15T09:16:57;101988.20;;;4.40
67353;BMP180;54238;52.278;21.056;2023-02-15T09:19:25;101990.80;;;4.40
67353;BMP180;54238;52.278;21.056;2023-02-15T09:21:56;101992.00;;;4.40
67353;BMP180;54238;52.278;21.056;2023-02-15T09:24:25;101990.40;;;4.40
67353;BMP180;54238;52.278;21.056;2023-02-15T09:26:54;101988.60;;;4.40
67353;BMP180;54238;52.278;21.056;2023-02-15T09:29:21;101987.00;;;4.40
67353;BMP180;54238;52.278;21.056;2023-02-15T09:31:50;101988.80;;;4.40
67353;BMP180;54238;52.278;21.056;2023-02-15T09:34:22;101989.60;;;4.40
67353;BMP180;54238;52.278;21.056;2023-02-15T09:36:50;101990.00;;;4.40
67353;BMP180;54238;52.278;21.056;2023-02-15T09:39:26;101986.20;;;4.40
67353;BMP180;54238;52.278;21.056;2023-02-15T09:45:30;101992.20;;;4.38
67353;BMP180;54238;52.278;21.056;2023-02-15T09:56:58;101984.60;;;4.30
67353;BMP180;54238;52.278;21.056;2023-02-15T09:59:42;101986.00;;;4.40
67353;BMP180;54238;52.278;21.056;2023-02-15T10:03:04;101984.20;;;4.40
67353;BMP180;54238;52.278;21.056;2023-02-15T10:10:55;101987.00;;;4.44
67353;BMP180;54238;52.278;21.056;2023-02-15T10:13:53;101988.60;;;4.50
67353;BMP180;54238;52.278;21.056;2023-02-15T10:16:51;101973.80;;;4.42
67353;BMP180;54238;52.278;21.056;2023-02-15T10:19:43;101971.20;;;4.40
67353;BMP180;54238;52.278;21.056;2023-02-15T10:27:52;101959.80;;;4.26
67353;BMP180;54238;52.278;21.056;2023-02-15T10:30:48;101956.20;;;4.30
67353;BMP180;54238;52.278;21.056;2023-02-15T10:33:36;101954.40;;;4.36
67353;BMP180;54238;52.278;21.056;2023-02-15T10:39:29;101959.80;;;4.40
67353;BMP180;54238;52.278;21.056;2023-02-15T10:45:35;101952.40;;;4.30
67353;BMP180;54238;52.278;21.056;2023-02-15T10:56:17;101940.60;;;4.40
67353;BMP180;54238;52.278;21.056;2023-02-15T11:04:55;101926.00;;;4.42
67353;BMP180;54238;52.278;21.056;2023-02-15T11:07:27;101922.80;;;4.40
67353;BMP180;54238;52.278;21.056;2023-02-15T11:12:42;101924.20;;;4.40
67353;BMP180;54238;52.278;21.056;2023-02-15T11:15:39;101923.60;;;4.40
67353;BMP180;54238;52.278;21.056;2023-02-15T11:18:34;101920.20;;;4.30
67353;BMP180;54238;52.278;21.056;2023-02-15T11:21:13;101916.60;;;4.30
67353;BMP180;54238;52.278;21.056;2023-02-15T11:23:45;101915.80;;;4.30
67353;BMP180;54238;52.278;21.056;2023-02-15T11:26:38;101917.00;;;4.30
67353;BMP180;54238;52.278;21.056;2023-02-15T11:37:50;101910.80;;;4.20
67353;BMP180;54238;52.278;21.056;2023-02-15T11:40:29;101907.80;;;4.28
67353;BMP180;54238;52.278;21.056;2023-02-15T11:43:12;101910.40;;;4.30
67353;BMP180;54238;52.278;21.056;2023-02-15T11:45:46;101915.60;;;4.30
67353;BMP180;54238;52.278;21.056;2023-02-15T11:48:14;101912.40;;;4.30
67353;BMP180;54238;52.278;21.056;2023-02-15T11:50:47;101916.80;;;4.30
67353;BMP180;54238;52.278;21.056;2023-02-15T11:53:21;101909.20;;;4.30
67353;BMP180;54238;52.278;21.056;2023-02-15T11:55:56;101905.00;;;4.30
67353;BMP180;54238;52.278;21.056;2023-02-15T11:58:40;101900.80;;;4.30
67353;BMP180;54238;52.278;21.056;2023-02-15T12:01:32;101894.20;;;4.30
67353;BMP180;54238;52.278;21.056;2023-02-15T12:04:07;101890.40;;;4.30
67353;BMP180;54238;52.278;21.056;2023-02-15T12:06:41;101893.20;;;4.38
67353;BMP180;54238;52.278;21.056;2023-02-15T12:12:29;101890.20;;;4.40
67353;BMP180;54238;52.278;21.056;2023-02-15T12:15:04;101890.00;;;4.40
67353;BMP180;54238;52.278;21.056;2023-02-15T12:23:10;101875.80;;;4.40
67353;BMP180;54238;52.278;21.056;2023-02-15T12:25:43;101875.60;;;4.40
67353;BMP180;54238;52.278;21.056;2023-02-15T12:28:42;101868.00;;;4.38
67353;BMP180;54238;52.278;21.056;2023-02-15T12:31:30;101865.60;;;4.40
67353;BMP180;54238;52.278;21.056;2023-02-15T12:34:16;101872.00;;;4.46
67353;BMP180;54238;52.278;21.056;2023-02-15T12:36:54;101867.00;;;4.50
67353;BMP180;54238;52.278;21.056;2023-02-15T12:39:34;101860.20;;;4.50
67353;BMP180;54238;52.278;21.056;2023-02-15T12:42:17;101851.40;;;4.46
67353;BMP180;54238;52.278;21.056;2023-02-15T12:45:02;101851.20;;;4.42
67353;BMP180;54238;52.278;21.056;2023-02-15T12:47:34;101847.00;;;4.50
67353;BMP180;54238;52.278;21.056;2023-02-15T12:52:32;101841.60;;;4.50
67353;BMP180;54238;52.278;21.056;2023-02-15T12:55:32;101839.80;;;4.50
67353;BMP180;54238;52.278;21.056;2023-02-15T12:58:23;101835.00;;;4.50
67353;BMP180;54238;52.278;21.056;2023-02-15T13:06:33;101836.40;;;4.50
67353;BMP180;54238;52.278;21.056;2023-02-15T13:15:25;101820.20;;;4.42
67353;BMP180;54238;52.278;21.056;2023-02-15T13:18:00;101817.60;;;4.50
67353;BMP180;54238;52.278;21.056;2023-02-15T13:20:28;101816.00;;;4.50
67353;BMP180;54238;52.278;21.056;2023-02-15T13:23:13;101811.20;;;4.50
67353;BMP180;54238;52.278;21.056;2023-02-15T13:25:49;101811.80;;;4.60
67353;BMP180;54238;52.278;21.056;2023-02-15T13:28:23;101808.20;;;4.60
67353;BMP180;54238;52.278;21.056;2023-02-15T13:30:51;101806.60;;;4.70
67353;BMP180;54238;52.278;21.056;2023-02-15T13:33:27;101800.00;;;4.68
67353;BMP180;54238;52.278;21.056;2023-02-15T13:41:20;101797.40;;;4.60
67353;BMP180;54238;52.278;21.056;2023-02-15T13:47:21;101795.80;;;4.50
67353;BMP180;54238;52.278;21.056;2023-02-15T14:01:40;101792.20;;;4.40
67353;BMP180;54238;52.278;21.056;2023-02-15T14:15:51;101780.20;;;4.40
67353;BMP180;54238;52.278;21.056;2023-02-15T14:18:40;101778.00;;;4.40
67353;BMP180;54238;52.278;21.056;2023-02-15T14:21:32;101781.60;;;4.50
67353;BMP180;54238;52.278;21.056;2023-02-15T14:27:19;101769.80;;;4.50
67353;BMP180;54238;52.278;21.056;2023-02-15T14:29:55;101775.00;;;4.50
67353;BMP180;54238;52.278;21.056;2023-02-15T14:32:35;101773.60;;;4.50
67353;BMP180;54238;52.278;21.056;2023-02-15T14:35:22;101776.80;;;4.50
67353;BMP180;54238;52.278;21.056;2023-02-15T14:38:13;101771.20;;;4.40
67353;BMP180;54238;52.278;21.056;2023-02-15T14:40:54;101771.20;;;4.40
67353;BMP180;54238;52.278;21.056;2023-02-15T14:46:58;101768.60;;;4.34
67353;BMP180;54238;52.278;21.056;2023-02-15T14:49:36;101767.20;;;4.38
67353;BMP180;54238;52.278;21.056;2023-02-15T14:52:10;101766.40;;;4.40
67353;BMP180;54238;52.278;21.056;2023-02-15T14:54:52;101763.60;;;4.32
67353;BMP180;54238;52.278;21.056;2023-02-15T14:57:26;101762.80;;;4.30
67353;BMP180;54238;52.278;21.056;2023-02-15T15:00:12;101755.80;;;4.30
67353;BMP180;54238;52.278;21.056;2023-02-15T15:03:24;101753.20;;;4.28
67353;BMP180;54238;52.278;21.056;2023-02-15T15:05:59;101752.60;;;4.26
67353;BMP180;54238;52.278;21.056;2023-02-15T15:08:37;101754.00;;;4.20
67353;BMP180;54238;52.278;21.056;2023-02-15T15:13:59;101753.00;;;4.20
67353;BMP180;54238;52.278;21.056;2023-02-15T15:19:10;101745.80;;;4.10
67353;BMP180;54238;52.278;21.056;2023-02-15T15:27:52;101735.20;;;4.10
67353;BMP180;54238;52.278;21.056;2023-02-15T15:44:40;101726.40;;;4.00
67353;BMP180;54238;52.278;21.056;2023-02-15T15:50:21;101724.60;;;4.00
67353;BMP180;54238;52.278;21.056;2023-02-15T15:53:22;101718.20;;;4.00
67353;BMP180;54238;52.278;21.056;2023-02-15T15:56:02;101720.20;;;4.00
67353;BMP180;54238;52.278;21.056;2023-02-15T15:58:33;101715.80;;;4.00
67353;BMP180;54238;52.278;21.056;2023-02-15T16:01:15;101718.20;;;3.90
67353;BMP180;54238;52.278;21.056;2023-02-15T16:03:50;101717.20;;;3.90
67353;BMP180;54238;52.278;21.056;2023-02-15T16:06:37;101714.60;;;3.82
67353;BMP180;54238;52.278;21.056;2023-02-15T16:09:27;101717.40;;;3.82
67353;BMP180;54238;52.278;21.056;2023-02-15T16:11:58;101715.20;;;3.80
67353;BMP180;54238;52.278;21.056;2023-02-15T16:14:36;101720.00;;;3.80
67353;BMP180;54238;52.278;21.056;2023-02-15T16:17:14;101718.20;;;3.74
67353;BMP180;54238;52.278;21.056;2023-02-15T16:19:44;101710.20;;;3.70
67353;BMP180;54238;52.278;21.056;2023-02-15T16:22:25;101715.40;;;3.70
67353;BMP180;54238;52.278;21.056;2023-02-15T16:28:11;101708.20;;;3.70
67353;BMP180;54238;52.278;21.056;2023-02-15T16:30:40;101706.40;;;3.70
67353;BMP180;54238;52.278;21.056;2023-02-15T16:33:17;101702.40;;;3.74
67353;BMP180;54238;52.278;21.056;2023-02-15T16:35:57;101701.20;;;3.70
67353;BMP180;54238;52.278;21.056;2023-02-15T16:44:02;101692.20;;;3.76
67353;BMP180;54238;52.278;21.056;2023-02-15T16:46:40;101693.60;;;3.80
67353;BMP180;54238;52.278;21.056;2023-02-15T16:49:23;101690.20;;;3.80
67353;BMP180;54238;52.278;21.056;2023-02-15T16:52:07;101690.40;;;3.80
67353;BMP180;54238;52.278;21.056;2023-02-15T16:54:35;101687.80;;;3.80
67353;BMP180;54238;52.278;21.056;2023-02-15T16:57:05;101683.80;;;3.80
67353;BMP180;54238;52.278;21.056;2023-02-15T16:59:39;101682.20;;;3.80
67353;BMP180;54238;52.278;21.056;2023-02-15T17:02:24;101682.20;;;3.80
67353;BMP180;54238;52.278;21.056;2023-02-15T17:11:36;101676.80;;;3.70
67353;BMP180;54238;52.278;21.056;2023-02-15T17:17:15;101671.00;;;3.70
67353;BMP180;54238;52.278;21.056;2023-02-15T17:19:50;101673.40;;;3.70
67353;BMP180;54238;52.278;21.056;2023-02-15T17:22:25;101666.80;;;3.60
67353;BMP180;54238;52.278;21.056;2023-02-15T17:25:03;101663.20;;;3.60
67353;BMP180;54238;52.278;21.056;2023-02-15T17:27:35;101661.00;;;3.60
67353;BMP180;54238;52.278;21.056;2023-02-15T17:30:26;101653.20;;;3.50
67353;BMP180;54238;52.278;21.056;2023-02-15T17:33:02;101648.20;;;3.40
67353;BMP180;54238;52.278;21.056;2023-02-15T17:35:32;101641.20;;;3.40
67353;BMP180;54238;52.278;21.056;2023-02-15T17:38:18;101646.60;;;3.34
67353;BMP180;54238;52.278;21.056;2023-02-15T17:40:53;101650.60;;;3.30
67353;BMP180;54238;52.278;21.056;2023-02-15T17:43:22;101644.80;;;3.20
67353;BMP180;54238;52.278;21.056;2023-02-15T17:45:53;101638.60;;;3.20
67353;BMP180;54238;52.278;21.056;2023-02-15T17:48:33;101641.00;;;3.20
67353;BMP180;54238;52.278;21.056;2023-02-15T17:51:05;101637.80;;;3.20
67353;BMP180;54238;52.278;21.056;2023-02-15T17:53:33;101636.00;;;3.20
67353;BMP180;54238;52.278;21.056;2023-02-15T17:56:05;101626.40;;;3.20
67353;BMP180;54238;52.278;21.056;2023-02-15T17:58:43;101624.00;;;3.10
67353;BMP180;54238;52.278;21.056;2023-02-15T18:01:21;101619.20;;;3.10
67353;BMP180;54238;52.278;21.056;2023-02-15T18:04:14;101618.60;;;3.10
67353;BMP180;54238;52.278;21.056;2023-02-15T18:07:02;101615.80;;;3.10
67353;BMP180;54238;52.278;21.056;2023-02-15T18:09:47;101619.00;;;3.10